world map with ZIH marked

ZIH - Airport

This information may not be accurate or current and is not valid for navigation or flight planning. No warranty of fitness for any purpose is made or implied.

flag of Guerreroflag of México

Donate via PayPal

Additional information is available on the NEW Great Circle Mapper

Location
City:  Ixtapa/Zihuatanejo, Guerrero, México
Name:Ixtapa-Zihuatanejo International Airport
ICAO / IATA:MMZH / ZIH

Details
Type:Airport (Aerodrome, Airfield)
Use:Public/Civil
Latitude:17°36'06"N (17.601569)
Longitude:101°27'38"W (-101.460535)
Datum:WGS 1984
Elevation:26 ft (8 m)
Runways:1
Longest:8202 × 197 ft (2500 × 60 m)

Time
Timezone:UTC+28:08 (DST+31:08)
Local Time:

Weather
METAR:MMZH  041341Z 00000KT 8SM SKC 17/14 A2986 RMK HZY
TAF:MMZH  (expired)

Related Locations
Nearby:
Farthest:NKW: 11616 mi / 18693 km
Diego Garcia, Chagos Archipelago, IO

Find:

   beyond  
but within

Other Information
Maps:
Sources:

  


 


Great Circle Mapper   Great Circle Mapper
Great Circle Mapper FAQ   Great Circle Mapper FAQ
  Karl's Home Page
KLS²   KLS² Home
   GC on Facebook
Airlines of the World   Airlines of the World
Donate via PayPal


Copyright © 2004-2020, Karl L. Swartz. All rights reserved.
All trademarks mentioned herein belong to their respective owners.

Please see credits for attribution and copyright information.

Karl Swartz <karl@kls2.com>
  Powered by FreeBSD
Valid HTML 4.01!
Labeled with ICRA
hCard Microformat
Geo Microformat